Введите код ICAO:



Lithuania (LT) КАУНАС (EYKA)

Lithuania (LT) КАУНАС (EYKA) Архив погоды
Фактическая погодаПрогноз погоды
Число:
Время: : UTC
Прогноз получен: 22 января 2021, в 21:50 UTC
Ветер: 160°-3 м/с
Направление ветра меняется от 120° до 200°
Видимость: 7000 м
Нет существенных облаков
 
METAR ADDS - METARS form results Aviation Digital Data Service (ADDS) Output produced by METARs form (2207 UTC 22 January 2021) found at http://aviationweather.gov/metar/data/  EYKA 222150Z 16006KT 120V200 7000 NSC 01/M01 Q0998 R08/290095

Для получения погоды по необходимым аэродромам введите 4-буквенный код ICAO и нажмите ЗАПРОС.
Коды аэродромов можно скачать здесь.
Если погода отображается, а названия аэропорта нет, сообщите нам и мы добавим его в список.
В случие обнаружения некорректной раскодировки, сообщите нам и ошибка будет исправлена.
Эта информация взята из открытых источников и должна использоваться исключительно в ознакомительных целях. Не используйте ее для планирования полетов-перелетов или для мероприятий, где возможны материальные потери или человеческие жертвы. Для этого обращайтесь в официальные структуры.